Time;durP1;ratioP1;P1;durP2;ratioP2;P2;SDS_P1;SDS_P2;PMS_P1;PMS_P2;Temp;Humidity;BMP_temperature;BMP_pressure;BME280_temperature;BME280_humidity;BME280_pressure;Samples;Min_cycle;Max_cycle;Signal;HPM_P1;HPM_P2
2021/10/20 00:00:19;;;;;;;28.55;18.48;;;16.30;99.90;;;;;;5015110;28;20037;-69
2021/10/20 00:02:47;;;;;;;26.65;18.42;;;16.30;99.90;;;;;;5019241;28;20408;-70
2021/10/20 00:05:13;;;;;;;25.67;18.17;;;16.30;99.90;;;;;;5018487;28;20038;-70
2021/10/20 00:07:39;;;;;;;26.58;18.40;;;16.20;99.90;;;;;;5020490;28;20477;-69
2021/10/20 00:10:06;;;;;;;23.35;18.00;;;16.20;99.90;;;;;;5019742;28;20037;-69
2021/10/20 00:12:31;;;;;;;24.88;18.45;;;16.20;99.90;;;;;;5016284;28;20030;-71
2021/10/20 00:14:57;;;;;;;29.92;19.70;;;16.20;99.90;;;;;;5019044;28;20105;-70
2021/10/20 00:17:23;;;;;;;23.77;16.77;;;16.20;99.90;;;;;;5021167;28;20033;-70
2021/10/20 00:19:54;;;;;;;24.40;16.58;;;16.20;99.90;;;;;;5022821;28;20419;-72
2021/10/20 00:22:20;;;;;;;23.23;17.45;;;16.20;99.90;;;;;;5013973;28;20037;-70
2021/10/20 00:24:46;;;;;;;25.67;17.52;;;16.10;99.90;;;;;;5016552;28;20091;-70
2021/10/20 00:27:12;;;;;;;27.52;18.85;;;16.10;99.90;;;;;;5022520;28;20112;-70
2021/10/20 00:29:38;;;;;;;24.27;16.98;;;16.00;99.90;;;;;;5019626;28;20088;-69
2021/10/20 00:32:04;;;;;;;27.40;18.25;;;16.00;99.90;;;;;;5018948;28;20081;-70
2021/10/20 00:34:29;;;;;;;25.92;17.45;;;16.00;99.90;;;;;;5020954;28;20700;-71
2021/10/20 00:36:55;;;;;;;24.42;16.70;;;16.00;99.90;;;;;;5019453;28;20069;-71
2021/10/20 00:39:21;;;;;;;24.80;17.02;;;16.00;99.90;;;;;;5018012;28;20468;-70
2021/10/20 00:41:47;;;;;;;26.38;17.40;;;15.90;99.90;;;;;;5019616;28;20047;-70
2021/10/20 00:44:12;;;;;;;24.27;16.52;;;15.90;99.90;;;;;;5018258;28;20395;-70
2021/10/20 00:46:38;;;;;;;23.00;15.57;;;15.90;99.90;;;;;;5021463;28;20034;-71
2021/10/20 00:49:04;;;;;;;26.35;15.73;;;15.80;99.90;;;;;;5017354;28;20029;-72
2021/10/20 00:51:30;;;;;;;23.92;15.77;;;15.90;99.90;;;;;;5019238;28;20058;-72
2021/10/20 00:53:59;;;;;;;21.33;15.70;;;15.80;99.90;;;;;;5019760;28;20036;-71
2021/10/20 00:56:26;;;;;;;21.40;14.43;;;15.80;99.90;;;;;;5015322;28;20048;-71
2021/10/20 00:58:53;;;;;;;21.92;13.80;;;15.80;99.90;;;;;;5017322;28;20033;-71
2021/10/20 01:01:20;;;;;;;19.88;13.68;;;15.80;99.90;;;;;;5017678;28;20037;-71
2021/10/20 01:03:46;;;;;;;22.55;13.98;;;15.80;99.90;;;;;;5020850;28;20083;-71
2021/10/20 01:06:12;;;;;;;21.10;14.18;;;15.80;99.90;;;;;;5016464;28;20034;-72
2021/10/20 01:08:39;;;;;;;22.83;13.57;;;15.70;99.90;;;;;;5019579;28;20034;-71
2021/10/20 01:11:06;;;;;;;18.25;13.05;;;15.70;99.90;;;;;;5022418;28;20109;-71
2021/10/20 01:13:32;;;;;;;19.77;14.35;;;15.70;99.90;;;;;;5015177;28;20026;-71
2021/10/20 01:15:59;;;;;;;21.27;14.27;;;15.70;99.90;;;;;;5016847;28;20061;-71
2021/10/20 01:18:25;;;;;;;22.65;14.48;;;15.60;99.90;;;;;;5017050;28;20096;-70
2021/10/20 01:20:53;;;;;;;19.73;13.85;;;15.60;99.90;;;;;;5014950;28;20033;-71
2021/10/20 01:23:20;;;;;;;21.45;14.05;;;15.60;99.90;;;;;;5016950;28;20084;-71
2021/10/20 01:25:46;;;;;;;19.10;12.90;;;15.60;99.90;;;;;;5015879;28;20124;-71
2021/10/20 01:28:12;;;;;;;20.95;13.48;;;15.60;99.90;;;;;;5018467;28;20104;-71
2021/10/20 01:30:38;;;;;;;19.75;13.90;;;15.60;99.90;;;;;;5022380;28;20380;-71
2021/10/20 01:33:04;;;;;;;18.73;12.50;;;15.60;99.90;;;;;;5017702;28;20029;-70
2021/10/20 01:35:30;;;;;;;19.83;13.15;;;15.50;99.90;;;;;;5014528;28;20530;-72
2021/10/20 01:38:00;;;;;;;21.58;14.05;;;15.50;99.90;;;;;;5017525;28;20484;-71
2021/10/20 01:40:26;;;;;;;22.38;14.27;;;15.50;99.90;;;;;;5016458;28;20025;-71
2021/10/20 01:42:52;;;;;;;19.98;14.38;;;15.50;99.90;;;;;;5019428;28;20053;-71
2021/10/20 01:45:18;;;;;;;19.67;12.82;;;15.40;99.90;;;;;;5015739;28;20135;-71
2021/10/20 01:47:43;;;;;;;19.20;13.65;;;15.40;99.90;;;;;;5017083;28;20024;-71
2021/10/20 01:50:12;;;;;;;18.05;11.93;;;15.40;99.90;;;;;;5019079;28;20105;-71
2021/10/20 01:52:38;;;;;;;17.75;12.07;;;15.50;99.90;;;;;;5018613;28;20030;-71
2021/10/20 01:55:12;;;;;;;19.40;12.75;;;15.50;99.90;;;;;;5016099;28;20030;-71
2021/10/20 01:57:38;;;;;;;19.10;11.93;;;15.50;99.90;;;;;;5017176;28;20041;-71
2021/10/20 02:00:06;;;;;;;20.38;13.07;;;15.50;99.90;;;;;;5014520;28;20029;-70
2021/10/20 02:02:31;;;;;;;15.90;11.75;;;15.40;99.90;;;;;;5018322;28;20033;-71
2021/10/20 02:04:57;;;;;;;19.92;12.57;;;15.40;99.90;;;;;;5019486;28;20036;-71
2021/10/20 02:07:23;;;;;;;16.63;11.35;;;15.40;99.90;;;;;;5016883;28;20029;-70
2021/10/20 02:09:49;;;;;;;19.38;12.35;;;15.40;99.90;;;;;;5020131;28;20108;-71
2021/10/20 02:12:15;;;;;;;17.90;11.75;;;15.40;99.90;;;;;;5019440;28;20033;-71
2021/10/20 02:14:40;;;;;;;15.75;11.50;;;15.40;99.90;;;;;;5017070;28;20036;-71
2021/10/20 02:17:07;;;;;;;17.25;11.57;;;15.40;99.90;;;;;;5016386;28;20087;-71
2021/10/20 02:19:33;;;;;;;16.95;10.57;;;15.40;99.90;;;;;;5016772;28;20108;-71
2021/10/20 02:21:59;;;;;;;15.02;10.65;;;15.40;99.90;;;;;;5014630;28;20169;-71
2021/10/20 02:24:25;;;;;;;14.25;10.07;;;15.50;99.90;;;;;;5013257;28;20034;-71
2021/10/20 02:26:51;;;;;;;16.67;11.00;;;15.40;99.90;;;;;;5019535;28;20079;-71
2021/10/20 02:29:16;;;;;;;16.00;10.85;;;15.50;99.90;;;;;;5018503;28;20035;-71
2021/10/20 02:31:46;;;;;;;15.75;10.52;;;15.50;99.90;;;;;;5012962;28;20793;-71
2021/10/20 02:34:14;;;;;;;14.38;10.52;;;15.50;99.90;;;;;;5013464;28;20144;-71
2021/10/20 02:36:40;;;;;;;15.38;10.75;;;15.50;99.90;;;;;;5015552;28;20021;-70
2021/10/20 02:39:06;;;;;;;14.23;10.52;;;15.50;99.90;;;;;;5015623;28;20545;-70
2021/10/20 02:41:31;;;;;;;14.50;9.60;;;15.40;99.90;;;;;;5018798;28;20023;-70
2021/10/20 02:43:57;;;;;;;15.68;10.60;;;15.50;99.90;;;;;;5017253;28;20034;-71
2021/10/20 02:46:23;;;;;;;13.32;9.70;;;15.50;99.90;;;;;;5017118;28;20033;-71
2021/10/20 02:48:48;;;;;;;15.40;10.15;;;15.50;99.90;;;;;;5015246;28;20034;-70
2021/10/20 02:51:14;;;;;;;12.30;9.40;;;15.40;99.90;;;;;;5015859;28;20038;-70
2021/10/20 02:53:40;;;;;;;12.63;9.45;;;15.40;99.90;;;;;;5017964;28;20101;-70
2021/10/20 02:56:06;;;;;;;14.40;9.95;;;15.40;99.90;;;;;;5012746;28;20042;-71
2021/10/20 02:58:31;;;;;;;12.65;9.30;;;15.40;99.90;;;;;;5018242;28;20483;-71
2021/10/20 03:00:57;;;;;;;11.63;8.40;;;15.30;99.90;;;;;;5015228;28;20045;-71
2021/10/20 03:03:23;;;;;;;15.57;8.85;;;15.30;99.90;;;;;;5014590;28;20030;-70
2021/10/20 03:05:49;;;;;;;12.07;8.57;;;15.30;99.90;;;;;;5014304;28;20034;-71
2021/10/20 03:08:14;;;;;;;12.65;8.38;;;15.30;99.90;;;;;;5018810;28;20091;-71
2021/10/20 03:10:40;;;;;;;12.75;8.40;;;15.30;99.90;;;;;;5017291;28;20022;-71
2021/10/20 03:13:06;;;;;;;14.10;8.20;;;15.30;99.90;;;;;;5017127;28;20029;-71
2021/10/20 03:15:32;;;;;;;10.35;7.40;;;15.30;99.90;;;;;;5017423;28;20364;-71
2021/10/20 03:17:58;;;;;;;13.50;8.98;;;15.30;99.90;;;;;;5018508;28;20029;-71
2021/10/20 03:20:25;;;;;;;10.25;7.47;;;15.30;99.90;;;;;;5014910;28;20061;-71
2021/10/20 03:22:50;;;;;;;11.18;8.20;;;15.30;99.90;;;;;;5013132;28;20029;-71
2021/10/20 03:25:16;;;;;;;9.85;7.38;;;15.30;99.90;;;;;;5016561;28;20042;-70
2021/10/20 03:27:47;;;;;;;11.43;7.82;;;15.30;99.90;;;;;;5014656;28;20081;-70
2021/10/20 03:30:14;;;;;;;10.85;7.95;;;15.30;99.90;;;;;;5017936;28;20030;-71
2021/10/20 03:32:40;;;;;;;13.85;8.23;;;15.20;99.90;;;;;;5018571;28;20096;-71
2021/10/20 03:35:07;;;;;;;12.02;7.57;;;15.20;99.90;;;;;;5016701;28;20179;-71
2021/10/20 03:37:33;;;;;;;10.98;7.50;;;15.20;99.90;;;;;;5014575;28;20363;-71
2021/10/20 03:39:59;;;;;;;9.95;7.57;;;15.20;99.90;;;;;;5015264;28;20021;-71
2021/10/20 03:42:25;;;;;;;9.80;7.05;;;15.20;99.90;;;;;;5018058;28;20048;-70
2021/10/20 03:44:51;;;;;;;11.23;7.75;;;15.20;99.90;;;;;;5014406;28;20034;-71
2021/10/20 03:47:20;;;;;;;13.30;8.27;;;15.20;99.90;;;;;;5017977;28;20058;-71
2021/10/20 03:49:49;;;;;;;10.77;7.90;;;15.20;99.90;;;;;;5015774;28;20018;-71
2021/10/20 03:52:15;;;;;;;11.30;7.05;;;15.20;99.90;;;;;;5019167;28;20053;-72
2021/10/20 03:54:41;;;;;;;12.30;7.75;;;15.20;99.90;;;;;;5010865;28;20034;-70
2021/10/20 03:57:08;;;;;;;11.75;6.97;;;15.20;99.90;;;;;;5014441;28;20040;-71
2021/10/20 03:59:34;;;;;;;11.68;7.50;;;15.20;99.90;;;;;;5014969;28;20125;-71
2021/10/20 04:02:00;;;;;;;11.88;7.53;;;15.20;99.90;;;;;;5015408;28;20033;-70
2021/10/20 04:04:26;;;;;;;10.00;6.85;;;15.10;99.90;;;;;;5016737;28;20036;-71
2021/10/20 04:06:52;;;;;;;12.25;7.13;;;15.10;99.90;;;;;;5016915;28;20093;-72
2021/10/20 04:09:17;;;;;;;9.45;6.63;;;15.10;99.90;;;;;;5013573;28;20464;-71
2021/10/20 04:11:43;;;;;;;11.65;6.68;;;15.10;99.90;;;;;;5012281;28;20025;-71
2021/10/20 04:14:09;;;;;;;10.88;6.97;;;15.10;99.90;;;;;;5014752;28;20153;-71
2021/10/20 04:16:35;;;;;;;9.77;7.05;;;15.10;99.90;;;;;;5017013;28;20073;-71
2021/10/20 04:19:01;;;;;;;10.52;6.43;;;15.10;99.90;;;;;;5015748;28;20038;-70
2021/10/20 04:21:27;;;;;;;10.25;6.80;;;15.10;99.90;;;;;;5013014;28;21230;-71
2021/10/20 04:23:53;;;;;;;9.30;6.75;;;15.10;99.90;;;;;;5016051;28;20029;-71
2021/10/20 04:26:19;;;;;;;9.57;6.35;;;15.10;99.90;;;;;;5015735;28;20073;-71
2021/10/20 04:28:44;;;;;;;11.18;6.95;;;15.10;99.90;;;;;;5015262;28;20458;-71
2021/10/20 04:31:10;;;;;;;9.02;6.15;;;15.10;99.90;;;;;;5013345;28;20515;-71
2021/10/20 04:33:36;;;;;;;9.70;6.32;;;15.10;99.90;;;;;;5017373;28;20510;-71
2021/10/20 04:36:02;;;;;;;7.45;5.82;;;15.00;99.90;;;;;;5014674;28;20056;-71
2021/10/20 04:38:27;;;;;;;8.02;5.60;;;15.10;99.90;;;;;;5015483;28;20423;-69
2021/10/20 04:40:53;;;;;;;9.15;5.38;;;15.00;99.90;;;;;;5018182;28;20030;-72
2021/10/20 04:43:19;;;;;;;9.07;6.35;;;15.00;99.90;;;;;;5014780;28;20045;-70
2021/10/20 04:45:45;;;;;;;9.77;5.95;;;15.00;99.90;;;;;;5013713;28;20673;-72
2021/10/20 04:48:10;;;;;;;9.43;5.72;;;15.00;99.90;;;;;;5019458;28;20028;-70
2021/10/20 04:50:36;;;;;;;8.07;6.00;;;15.00;99.90;;;;;;5019244;28;20030;-69
2021/10/20 04:53:03;;;;;;;8.18;5.75;;;15.00;99.90;;;;;;5016957;28;20121;-71
2021/10/20 04:55:29;;;;;;;8.90;5.10;;;15.00;99.90;;;;;;5037407;28;20026;-71
2021/10/20 04:57:55;;;;;;;8.65;5.90;;;15.00;99.90;;;;;;5036391;28;20487;-72
2021/10/20 05:00:24;;;;;;;8.07;5.50;;;15.00;99.90;;;;;;5039767;28;20033;-71
2021/10/20 05:02:50;;;;;;;8.05;5.70;;;15.00;99.90;;;;;;5037392;28;20060;-71
2021/10/20 05:05:17;;;;;;;10.82;6.22;;;15.00;99.90;;;;;;5038318;28;20029;-71
2021/10/20 05:07:49;;;;;;;8.60;5.55;;;15.00;99.90;;;;;;5022224;28;20029;-72
2021/10/20 05:10:15;;;;;;;8.98;6.03;;;15.00;99.90;;;;;;5040647;28;20476;-72
2021/10/20 05:12:41;;;;;;;9.40;5.40;;;15.00;99.90;;;;;;5036118;28;20021;-70
2021/10/20 05:15:07;;;;;;;9.63;5.60;;;15.00;99.90;;;;;;5041514;28;20082;-70
2021/10/20 05:17:33;;;;;;;9.75;5.43;;;15.00;99.90;;;;;;5037049;28;20056;-70
2021/10/20 05:19:58;;;;;;;8.63;5.72;;;15.00;99.90;;;;;;5041665;28;20053;-71
2021/10/20 05:22:24;;;;;;;11.48;6.53;;;15.00;99.90;;;;;;5038178;28;20061;-71
2021/10/20 05:24:50;;;;;;;8.50;6.03;;;15.00;99.90;;;;;;5039580;28;20518;-71
2021/10/20 05:27:16;;;;;;;10.75;5.68;;;15.00;99.90;;;;;;5042450;28;20529;-71
2021/10/20 05:29:41;;;;;;;8.23;5.47;;;15.00;99.90;;;;;;5041595;28;20104;-73
2021/10/20 05:32:07;;;;;;;8.80;5.38;;;15.00;99.90;;;;;;5037388;28;20033;-71
2021/10/20 05:34:33;;;;;;;7.25;5.13;;;15.00;99.90;;;;;;5039741;28;20105;-71
2021/10/20 05:36:59;;;;;;;9.57;5.57;;;15.00;99.90;;;;;;5038081;28;20102;-71
2021/10/20 05:39:25;;;;;;;8.32;5.57;;;15.00;99.90;;;;;;5040375;28;20103;-71
2021/10/20 05:41:50;;;;;;;8.25;5.20;;;15.00;99.90;;;;;;5039209;28;20140;-71
2021/10/20 05:44:19;;;;;;;8.75;5.10;;;15.00;99.90;;;;;;5037429;28;20025;-71
2021/10/20 05:46:47;;;;;;;8.35;5.25;;;15.00;99.90;;;;;;5041304;28;20032;-71
2021/10/20 05:49:13;;;;;;;7.68;5.35;;;15.00;99.90;;;;;;5038807;28;20459;-72
2021/10/20 05:51:39;;;;;;;12.68;5.82;;;15.00;99.90;;;;;;5036231;28;20083;-72
2021/10/20 05:54:05;;;;;;;7.15;5.20;;;15.10;99.90;;;;;;5038671;28;20028;-72
2021/10/20 05:56:30;;;;;;;9.68;5.80;;;15.10;99.90;;;;;;5041556;28;20363;-72
2021/10/20 05:58:56;;;;;;;12.00;6.53;;;15.10;99.90;;;;;;5041751;28;20108;-72
2021/10/20 06:01:23;;;;;;;9.90;5.57;;;15.10;99.90;;;;;;5039863;28;20032;-73
2021/10/20 06:03:51;;;;;;;9.40;5.53;;;15.10;99.90;;;;;;5035209;28;20028;-72
2021/10/20 06:06:17;;;;;;;8.95;5.95;;;15.10;99.90;;;;;;5037751;28;20111;-73
2021/10/20 06:08:43;;;;;;;10.20;5.75;;;15.10;99.90;;;;;;5041142;28;20104;-72
2021/10/20 06:11:09;;;;;;;7.65;5.22;;;15.10;99.90;;;;;;5036816;28;20039;-72
2021/10/20 06:13:35;;;;;;;11.25;5.70;;;15.10;99.90;;;;;;5037091;28;20998;-71
2021/10/20 06:26:50;;;;;;;13.10;6.03;;;15.10;99.90;;;;;;5026327;28;20049;-72
2021/10/20 06:29:18;;;;;;;9.57;5.75;;;15.20;99.90;;;;;;5028315;28;20034;-69
2021/10/20 06:31:46;;;;;;;12.55;5.78;;;15.20;99.90;;;;;;5019711;28;20056;-70
2021/10/20 06:34:12;;;;;;;9.48;6.07;;;15.20;99.90;;;;;;5019727;28;20033;-70
2021/10/20 06:36:41;;;;;;;8.55;5.20;;;15.20;99.90;;;;;;5019007;28;20410;-72
2021/10/20 06:39:07;;;;;;;12.77;6.50;;;15.20;99.90;;;;;;5019500;28;20175;-71
2021/10/20 06:41:33;;;;;;;8.20;6.25;;;15.20;99.90;;;;;;5017493;28;20025;-71
2021/10/20 06:43:58;;;;;;;8.93;6.05;;;15.30;99.90;;;;;;5010243;28;20025;-71
2021/10/20 06:46:25;;;;;;;12.02;6.18;;;15.30;99.90;;;;;;5013322;28;20160;-71
2021/10/20 06:48:51;;;;;;;7.72;5.55;;;15.30;99.90;;;;;;5021085;28;20038;-70
2021/10/20 06:51:17;;;;;;;7.55;5.88;;;15.40;99.90;;;;;;5016657;28;20026;-70
2021/10/20 06:53:43;;;;;;;9.82;5.90;;;15.40;99.80;;;;;;5019032;28;20414;-72
2021/10/20 06:56:09;;;;;;;8.73;5.28;;;15.40;99.90;;;;;;5017170;28;20036;-71
2021/10/20 06:58:36;;;;;;;10.48;5.93;;;15.40;99.70;;;;;;5020463;28;20045;-71
2021/10/20 07:01:03;;;;;;;7.30;5.90;;;15.40;99.60;;;;;;5017484;28;20025;-71
2021/10/20 07:03:28;;;;;;;10.07;6.07;;;15.40;99.70;;;;;;5020797;28;20041;-71
2021/10/20 07:05:54;;;;;;;9.20;5.45;;;15.40;99.70;;;;;;5021268;28;20038;-70
2021/10/20 07:08:20;;;;;;;11.43;6.05;;;15.40;99.70;;;;;;5022275;28;20386;-71
2021/10/20 07:10:45;;;;;;;9.90;5.78;;;15.40;99.80;;;;;;5017848;28;20026;-70
2021/10/20 07:13:11;;;;;;;12.48;6.53;;;15.50;99.50;;;;;;5020660;28;20057;-71
2021/10/20 07:15:37;;;;;;;9.75;5.95;;;15.50;99.30;;;;;;5020312;28;20054;-70
2021/10/20 07:18:03;;;;;;;9.98;6.10;;;15.50;99.40;;;;;;5019825;28;20026;-70
2021/10/20 07:20:29;;;;;;;11.57;6.68;;;15.50;99.50;;;;;;5020061;28;20033;-70
2021/10/20 07:22:55;;;;;;;10.18;6.20;;;15.60;98.90;;;;;;5020290;28;20471;-71
2021/10/20 07:25:21;;;;;;;11.88;6.72;;;15.60;99.00;;;;;;5019288;28;20108;-70
2021/10/20 07:27:48;;;;;;;10.23;6.03;;;15.50;99.20;;;;;;5018487;28;20120;-70
2021/10/20 07:30:14;;;;;;;9.43;6.38;;;15.60;99.10;;;;;;5020471;28;20091;-70
2021/10/20 07:32:41;;;;;;;9.95;6.38;;;15.60;99.40;;;;;;5019406;28;20033;-70
2021/10/20 07:35:09;;;;;;;11.13;6.55;;;15.50;98.90;;;;;;5019905;28;20032;-71
2021/10/20 07:37:35;;;;;;;10.63;6.63;;;15.60;99.10;;;;;;5016728;28;20032;-71
2021/10/20 07:40:01;;;;;;;14.95;7.43;;;15.60;98.70;;;;;;5021167;28;20034;-71
2021/10/20 07:42:27;;;;;;;13.75;6.68;;;15.60;98.60;;;;;;5021851;28;20030;-71
2021/10/20 07:44:53;;;;;;;9.68;6.80;;;15.60;98.70;;;;;;5015571;28;20030;-71
2021/10/20 07:47:20;;;;;;;11.73;6.68;;;15.60;98.70;;;;;;5019012;28;20080;-71
2021/10/20 07:49:47;;;;;;;10.80;7.50;;;15.60;98.40;;;;;;5018592;28;20025;-70
2021/10/20 07:52:14;;;;;;;13.80;6.97;;;15.70;98.20;;;;;;5019975;28;20025;-70
2021/10/20 07:54:40;;;;;;;12.75;7.65;;;15.80;98.40;;;;;;5019549;28;20546;-70
2021/10/20 07:57:06;;;;;;;15.38;7.88;;;15.80;97.90;;;;;;5012646;28;20033;-71
2021/10/20 07:59:31;;;;;;;10.80;6.95;;;15.80;98.10;;;;;;5015210;28;20037;-71
2021/10/20 08:01:57;;;;;;;11.82;7.13;;;15.90;98.30;;;;;;5018804;28;20049;-70
2021/10/20 08:04:23;;;;;;;15.05;7.40;;;15.90;97.90;;;;;;5020487;28;20181;-71
2021/10/20 08:06:49;;;;;;;10.43;7.57;;;15.90;98.00;;;;;;5020199;28;20022;-70
2021/10/20 08:09:14;;;;;;;10.80;7.25;;;15.90;98.00;;;;;;5019538;28;20037;-71
2021/10/20 08:11:40;;;;;;;18.10;7.45;;;16.00;98.00;;;;;;5020938;28;20606;-71
2021/10/20 08:14:06;;;;;;;11.85;7.93;;;16.00;97.80;;;;;;5021691;28;20360;-71
2021/10/20 08:16:32;;;;;;;10.57;7.38;;;16.00;97.70;;;;;;5018469;28;20030;-70
2021/10/20 08:18:58;;;;;;;9.77;7.40;;;16.10;97.90;;;;;;5018122;28;20097;-71
2021/10/20 08:21:24;;;;;;;11.35;6.80;;;16.10;97.90;;;;;;5021632;28;20487;-70
2021/10/20 08:23:49;;;;;;;11.93;7.93;;;16.10;97.90;;;;;;5023847;28;20048;-71
2021/10/20 08:26:15;;;;;;;12.95;7.55;;;16.20;97.50;;;;;;5024169;28;20032;-71
2021/10/20 08:28:42;;;;;;;12.75;7.82;;;16.20;97.50;;;;;;5006918;28;20041;-70
2021/10/20 08:31:08;;;;;;;11.18;7.63;;;16.10;97.40;;;;;;5013354;28;20029;-71
2021/10/20 08:33:33;;;;;;;12.63;7.97;;;16.20;97.30;;;;;;5019969;28;20437;-71
2021/10/20 08:35:59;;;;;;;16.73;7.97;;;16.20;97.20;;;;;;5022998;28;20471;-71
2021/10/20 08:38:25;;;;;;;10.90;7.82;;;16.30;97.00;;;;;;5014913;28;20096;-70
2021/10/20 08:40:51;;;;;;;13.13;8.30;;;16.40;96.90;;;;;;5026855;28;20221;-71
2021/10/20 08:43:21;;;;;;;12.90;8.32;;;16.50;97.10;;;;;;5021637;28;20065;-71
2021/10/20 08:45:48;;;;;;;11.70;7.95;;;16.50;97.00;;;;;;5020797;28;20034;-70
2021/10/20 08:48:19;;;;;;;13.23;7.75;;;16.50;97.10;;;;;;5016225;28;20061;-71
2021/10/20 08:50:50;;;;;;;13.55;8.45;;;16.60;96.80;;;;;;5022939;28;20032;-71
2021/10/20 08:53:18;;;;;;;11.10;7.82;;;16.70;96.60;;;;;;5020614;28;20434;-71
2021/10/20 08:55:49;;;;;;;14.13;8.63;;;16.80;96.40;;;;;;5024332;28;20042;-71
2021/10/20 08:58:15;;;;;;;16.13;8.63;;;16.80;96.50;;;;;;5019855;28;20464;-71
2021/10/20 09:00:41;;;;;;;10.50;7.07;;;16.90;96.00;;;;;;5022404;28;20037;-71
2021/10/20 09:03:06;;;;;;;14.35;8.48;;;16.80;96.30;;;;;;5015163;28;20041;-71
2021/10/20 09:05:32;;;;;;;12.10;7.88;;;16.80;96.40;;;;;;5013227;28;20029;-71
2021/10/20 09:07:58;;;;;;;10.38;7.70;;;16.80;96.60;;;;;;5021632;28;20026;-71
2021/10/20 09:10:26;;;;;;;12.80;8.05;;;16.70;96.20;;;;;;5013213;28;20065;-71
2021/10/20 09:12:54;;;;;;;12.52;8.88;;;16.70;96.50;;;;;;5024106;28;20685;-71
2021/10/20 09:15:22;;;;;;;12.13;8.00;;;16.70;96.50;;;;;;5022409;28;20033;-71
2021/10/20 09:18:14;;;;;;;12.95;8.90;;;16.70;96.70;;;;;;5021004;28;20068;-71
2021/10/20 09:20:42;;;;;;;14.50;9.90;;;16.80;96.80;;;;;;5020664;28;20080;-70
2021/10/20 09:23:17;;;;;;;13.65;8.13;;;16.70;96.70;;;;;;5013864;28;20357;-70
2021/10/20 09:25:57;;;;;;;12.88;8.30;;;16.70;96.90;;;;;;5023328;28;20029;-71
2021/10/20 09:28:33;;;;;;;13.65;8.82;;;16.70;97.10;;;;;;5022354;28;20105;-71
2021/10/20 09:31:02;;;;;;;11.02;8.10;;;16.70;97.00;;;;;;5023006;28;20057;-70
2021/10/20 09:33:29;;;;;;;11.93;8.65;;;16.70;97.10;;;;;;5018719;28;20053;-71
2021/10/20 09:36:04;;;;;;;12.48;8.50;;;16.70;97.30;;;;;;5020442;28;20022;-71
2021/10/20 09:38:36;;;;;;;12.73;8.15;;;16.70;97.30;;;;;;5021724;28;20036;-71
2021/10/20 09:41:06;;;;;;;12.10;8.60;;;16.70;97.30;;;;;;5021864;28;20030;-70
2021/10/20 09:43:32;;;;;;;12.30;8.00;;;16.70;97.00;;;;;;5020302;28;20079;-71
2021/10/20 09:46:01;;;;;;;10.55;7.63;;;16.70;97.10;;;;;;5021973;28;20414;-71
2021/10/20 09:48:27;;;;;;;10.75;7.82;;;16.80;97.10;;;;;;5020333;28;20372;-71
2021/10/20 09:50:54;;;;;;;14.02;7.78;;;16.80;97.30;;;;;;5021947;28;20029;-70
2021/10/20 09:53:20;;;;;;;11.65;8.50;;;16.70;97.30;;;;;;5024732;28;20088;-71
2021/10/20 09:55:46;;;;;;;11.35;8.32;;;16.80;97.10;;;;;;5021529;28;20029;-71
2021/10/20 09:58:14;;;;;;;12.88;7.88;;;16.80;96.90;;;;;;5023195;28;20041;-71
2021/10/20 10:00:44;;;;;;;13.23;7.40;;;16.80;97.30;;;;;;5023569;28;20030;-71
2021/10/20 10:03:11;;;;;;;15.65;7.88;;;17.00;97.10;;;;;;5021875;28;20065;-71
2021/10/20 10:05:37;;;;;;;11.00;8.23;;;17.00;97.10;;;;;;5020077;28;20439;-71
2021/10/20 10:08:03;;;;;;;12.07;7.30;;;17.10;96.80;;;;;;5014282;28;20025;-71
2021/10/20 10:10:29;;;;;;;9.23;6.90;;;17.30;96.40;;;;;;5021530;28;20076;-71
2021/10/20 10:13:07;;;;;;;11.68;7.93;;;17.50;95.30;;;;;;5021500;28;20089;-71
2021/10/20 10:15:38;;;;;;;10.07;6.93;;;17.60;95.30;;;;;;5018941;28;20028;-71
2021/10/20 10:18:05;;;;;;;12.50;7.30;;;17.60;95.40;;;;;;5021467;28;20037;-71
2021/10/20 10:20:42;;;;;;;11.40;7.00;;;17.60;95.60;;;;;;5022802;28;20033;-71
2021/10/20 10:23:22;;;;;;;14.35;7.22;;;17.60;95.50;;;;;;5017199;28;20490;-71
2021/10/20 10:25:57;;;;;;;10.65;7.38;;;17.50;95.50;;;;;;5013625;28;20054;-71
2021/10/20 10:28:29;;;;;;;10.27;7.47;;;17.40;95.50;;;;;;5023413;28;20032;-71
2021/10/20 10:31:10;;;;;;;9.60;6.97;;;17.40;95.90;;;;;;5019920;28;20037;-71
2021/10/20 10:33:50;;;;;;;9.20;6.75;;;17.40;96.20;;;;;;5016177;28;20034;-71
2021/10/20 10:36:22;;;;;;;9.25;6.53;;;17.40;96.30;;;;;;5020152;28;20033;-71
2021/10/20 10:38:49;;;;;;;19.95;7.68;;;17.30;96.50;;;;;;5021176;28;20029;-71
2021/10/20 10:41:29;;;;;;;10.05;7.15;;;17.20;97.10;;;;;;5012481;28;20037;-71
2021/10/20 10:44:01;;;;;;;8.98;6.63;;;17.20;97.40;;;;;;5021397;28;20061;-71
2021/10/20 10:46:30;;;;;;;10.82;7.32;;;17.20;97.80;;;;;;5017453;28;20406;-71
2021/10/20 10:48:56;;;;;;;12.43;7.00;;;17.10;98.30;;;;;;5021205;28;20057;-71
2021/10/20 10:51:22;;;;;;;9.73;7.10;;;17.00;99.10;;;;;;5019731;28;20022;-70
2021/10/20 10:53:56;;;;;;;10.90;6.93;;;16.90;99.50;;;;;;5021811;28;20033;-71
2021/10/20 10:56:22;;;;;;;13.65;7.43;;;16.80;99.70;;;;;;5019281;28;20078;-71
2021/10/20 10:59:00;;;;;;;9.55;7.18;;;16.70;99.90;;;;;;5023948;28;20096;-71
2021/10/20 11:01:46;;;;;;;12.75;8.02;;;16.70;99.90;;;;;;5018357;28;20038;-71
2021/10/20 11:04:17;;;;;;;9.93;5.88;;;16.60;99.90;;;;;;5022763;28;20069;-71
2021/10/20 11:06:43;;;;;;;12.48;6.97;;;16.70;99.90;;;;;;5017706;28;20030;-71
2021/10/20 11:09:09;;;;;;;10.85;6.43;;;16.60;99.90;;;;;;5019004;28;20484;-71
2021/10/20 11:11:35;;;;;;;11.80;6.38;;;16.70;99.90;;;;;;5019368;28;20068;-71
2021/10/20 11:14:01;;;;;;;10.75;6.57;;;16.80;99.90;;;;;;5026060;28;20021;-71
2021/10/20 11:16:28;;;;;;;9.50;7.50;;;17.00;99.80;;;;;;5020196;28;20037;-71
2021/10/20 11:18:54;;;;;;;9.48;7.18;;;17.10;99.30;;;;;;5018797;28;20033;-70
2021/10/20 11:21:22;;;;;;;9.65;6.50;;;17.10;98.80;;;;;;5018937;28;20061;-71
2021/10/20 11:23:47;;;;;;;12.23;7.35;;;17.10;98.90;;;;;;5022173;28;20502;-71
2021/10/20 11:26:14;;;;;;;10.02;6.30;;;17.10;98.80;;;;;;5020929;28;20037;-71
2021/10/20 11:28:41;;;;;;;10.82;6.65;;;17.00;99.10;;;;;;5023750;28;20034;-71
2021/10/20 11:31:09;;;;;;;13.27;6.82;;;17.00;98.80;;;;;;5019161;28;20033;-71
2021/10/20 11:33:35;;;;;;;14.73;7.03;;;17.00;98.90;;;;;;5019141;28;20663;-70
2021/10/20 11:36:00;;;;;;;11.32;6.90;;;17.00;98.70;;;;;;5018819;28;20029;-70
2021/10/20 11:38:34;;;;;;;10.02;6.32;;;17.00;98.80;;;;;;5021818;28;20074;-70
2021/10/20 11:41:01;;;;;;;8.27;6.00;;;17.00;98.60;;;;;;5016132;28;20029;-70
2021/10/20 11:43:39;;;;;;;12.10;6.32;;;17.10;98.80;;;;;;5020807;28;20053;-70
2021/10/20 11:46:06;;;;;;;9.75;6.00;;;17.00;98.60;;;;;;5011818;28;20026;-69
2021/10/20 11:48:34;;;;;;;11.10;5.55;;;17.10;98.70;;;;;;5017245;28;20021;-70
2021/10/20 11:51:01;;;;;;;7.97;5.72;;;17.10;98.80;;;;;;5016698;28;20089;-70
2021/10/20 11:53:30;;;;;;;10.48;6.60;;;17.10;98.50;;;;;;5012080;28;20494;-70
2021/10/20 11:55:58;;;;;;;12.52;5.97;;;17.10;98.10;;;;;;5023074;28;20030;-70
2021/10/20 11:58:32;;;;;;;9.68;5.63;;;17.10;98.40;;;;;;5015274;28;20344;-70
2021/10/20 12:01:00;;;;;;;11.93;6.22;;;17.00;98.60;;;;;;5014483;28;20038;-72
2021/10/20 12:03:41;;;;;;;7.90;5.82;;;17.00;98.80;;;;;;5020595;28;20025;-70
2021/10/20 12:06:10;;;;;;;14.63;5.40;;;17.00;98.90;;;;;;5019941;28;20040;-70
2021/10/20 12:08:38;;;;;;;12.23;6.63;;;17.00;99.10;;;;;;5020377;28;20022;-70
2021/10/20 12:11:04;;;;;;;8.50;5.82;;;16.90;99.30;;;;;;5023783;28;20033;-70
2021/10/20 12:13:35;;;;;;;8.82;5.90;;;16.90;99.90;;;;;;5022944;28;20459;-70
2021/10/20 12:16:01;;;;;;;8.02;6.07;;;16.90;99.90;;;;;;5026590;28;20112;-70
2021/10/20 12:18:29;;;;;;;9.40;6.30;;;16.80;99.90;;;;;;5015952;28;20179;-70
2021/10/20 12:20:57;;;;;;;9.60;6.38;;;16.70;99.90;;;;;;5019232;28;20037;-70
2021/10/20 12:23:29;;;;;;;11.48;7.43;;;16.70;99.90;;;;;;5022361;28;20038;-70
2021/10/20 12:25:55;;;;;;;9.15;6.65;;;16.70;99.90;;;;;;5021569;28;20467;-70
2021/10/20 12:28:25;;;;;;;9.75;5.90;;;16.60;99.90;;;;;;5023696;28;20033;-70
2021/10/20 12:30:51;;;;;;;8.43;6.53;;;16.60;99.90;;;;;;5026041;28;20064;-70
2021/10/20 12:33:21;;;;;;;12.10;7.10;;;16.60;99.90;;;;;;5023805;28;20518;-70
2021/10/20 12:35:47;;;;;;;9.68;6.55;;;16.60;99.90;;;;;;5013725;28;20116;-71
2021/10/20 12:38:14;;;;;;;8.63;6.75;;;16.50;99.90;;;;;;5018308;28;20036;-70
2021/10/20 12:40:40;;;;;;;9.30;7.07;;;16.50;99.90;;;;;;5027873;28;20021;-70
2021/10/20 12:43:10;;;;;;;9.38;6.78;;;16.50;99.90;;;;;;5023107;28;20026;-70
2021/10/20 12:45:36;;;;;;;14.73;8.13;;;16.50;99.90;;;;;;5022828;28;20562;-71
2021/10/20 12:48:05;;;;;;;9.88;7.03;;;16.50;99.90;;;;;;5020147;28;20053;-70